createdAt,value
2022-07-27T00:01:50.432Z,74.78
2022-07-27T00:04:18.867Z,73.71
2022-07-27T00:06:45.844Z,73.86
2022-07-27T00:09:12.880Z,74.03
2022-07-27T00:11:39.856Z,74.69
2022-07-27T00:14:06.732Z,74.96
2022-07-27T00:16:33.485Z,75.44
2022-07-27T00:19:00.256Z,74.95
2022-07-27T00:21:26.987Z,74.97
2022-07-27T00:23:55.038Z,74.03
2022-07-27T00:26:21.949Z,74.23
2022-07-27T00:28:49.554Z,75.00
2022-07-27T00:31:17.314Z,75.38
2022-07-27T00:33:44.084Z,75.64
2022-07-27T00:36:13.702Z,76.04
2022-07-27T00:38:48.668Z,75.07
2022-07-27T00:41:16.257Z,74.62
2022-07-27T00:43:59.364Z,73.93
2022-07-27T00:46:29.114Z,73.79
2022-07-27T00:48:56.035Z,73.39
2022-07-27T00:51:24.617Z,73.31
2022-07-27T00:53:53.299Z,73.65
2022-07-27T00:56:20.866Z,73.73
2022-07-27T00:58:51.028Z,74.08
2022-07-27T01:01:19.617Z,74.35
2022-07-27T01:03:46.626Z,74.85
2022-07-27T01:06:15.760Z,75.08
2022-07-27T01:08:42.704Z,75.22
2022-07-27T01:11:10.827Z,75.71
2022-07-27T01:13:38.399Z,76.19
2022-07-27T01:16:07.846Z,75.67
2022-07-27T01:18:39.455Z,76.50
2022-07-27T01:21:08.943Z,76.13
2022-07-27T01:23:36.407Z,75.90
2022-07-27T01:26:04.691Z,76.00
2022-07-27T01:28:31.618Z,76.72
2022-07-27T01:30:58.603Z,76.47
2022-07-27T01:33:28.146Z,76.59
2022-07-27T01:35:56.713Z,77.75
2022-07-27T01:38:23.619Z,77.59
2022-07-27T01:40:52.158Z,77.69
2022-07-27T01:43:19.476Z,77.53
2022-07-27T01:45:46.203Z,77.99
2022-07-27T01:48:13.408Z,78.81
2022-07-27T01:50:40.924Z,78.87
2022-07-27T01:53:12.329Z,78.45
2022-07-27T01:55:39.466Z,79.01
2022-07-27T01:58:12.144Z,78.96
2022-07-27T02:00:40.790Z,78.83
2022-07-27T02:03:09.378Z,79.08
2022-07-27T02:05:37.814Z,79.94
2022-07-27T02:08:08.758Z,80.11
2022-07-27T02:10:37.434Z,79.78
2022-07-27T02:13:22.360Z,80.44
2022-07-27T02:15:49.871Z,80.44
2022-07-27T02:18:33.458Z,80.62
2022-07-27T02:21:04.810Z,79.83
2022-07-27T02:23:32.027Z,80.23
2022-07-27T02:25:59.092Z,80.32
2022-07-27T02:28:26.024Z,80.78
2022-07-27T02:30:52.773Z,81.02
2022-07-27T02:33:19.570Z,80.61
2022-07-27T02:35:46.349Z,81.33
2022-07-27T02:38:13.138Z,80.88
2022-07-27T02:40:39.880Z,80.58
2022-07-27T02:43:06.636Z,79.97
2022-07-27T02:45:33.359Z,80.00
2022-07-27T02:48:00.125Z,80.07
2022-07-27T02:50:27.123Z,79.97
2022-07-27T02:52:54.185Z,79.75
2022-07-27T02:55:20.943Z,79.58
2022-07-27T02:57:47.647Z,79.57
2022-07-27T03:00:15.986Z,79.47
2022-07-27T03:02:42.761Z,79.60
2022-07-27T03:05:11.574Z,79.66
2022-07-27T03:07:38.566Z,79.63
2022-07-27T03:10:06.269Z,79.63
2022-07-27T03:12:33.042Z,79.86
2022-07-27T03:14:59.911Z,80.04
2022-07-27T03:17:26.614Z,79.63
2022-07-27T03:19:53.467Z,79.84
2022-07-27T03:22:20.194Z,79.71
2022-07-27T03:24:46.861Z,80.19
2022-07-27T03:27:13.547Z,80.53
2022-07-27T03:29:40.325Z,81.59
2022-07-27T03:32:07.102Z,81.57
2022-07-27T03:34:33.789Z,81.61
2022-07-27T03:37:00.455Z,82.56
2022-07-27T03:39:27.185Z,81.68
2022-07-27T03:41:54.244Z,81.48
2022-07-27T03:44:21.831Z,81.43
2022-07-27T03:46:48.524Z,81.17
2022-07-27T03:49:15.533Z,81.64
2022-07-27T03:51:42.761Z,82.11
2022-07-27T03:54:10.210Z,82.63
2022-07-27T03:56:37.122Z,82.78
2022-07-27T03:59:03.864Z,83.08
2022-07-27T04:01:30.612Z,83.21
2022-07-27T04:03:57.410Z,83.79
2022-07-27T04:06:25.679Z,83.23
2022-07-27T04:08:57.593Z,82.70
2022-07-27T04:11:26.671Z,82.97
2022-07-27T04:13:56.377Z,82.80
2022-07-27T04:16:23.271Z,82.63
2022-07-27T04:18:50.204Z,82.31
2022-07-27T04:21:16.879Z,82.48
2022-07-27T04:23:43.561Z,81.74
2022-07-27T04:26:10.279Z,83.16
2022-07-27T04:28:37.094Z,82.71
2022-07-27T04:31:04.015Z,82.70
2022-07-27T04:33:31.795Z,82.44
2022-07-27T04:35:58.709Z,82.94
2022-07-27T04:38:25.468Z,82.54
2022-07-27T04:40:56.358Z,82.68
2022-07-27T04:43:24.984Z,83.43
2022-07-27T04:45:55.112Z,82.51
2022-07-27T04:48:21.924Z,83.15
2022-07-27T04:50:48.619Z,83.42
2022-07-27T04:53:16.365Z,83.30
2022-07-27T04:55:44.804Z,83.31
2022-07-27T04:58:12.233Z,83.34
2022-07-27T05:00:39.620Z,82.73
2022-07-27T05:03:06.742Z,81.42
2022-07-27T05:05:33.454Z,82.11
2022-07-27T05:08:00.256Z,82.38
2022-07-27T05:10:27.155Z,82.00
2022-07-27T05:12:54.165Z,81.90
2022-07-27T05:15:21.421Z,81.93
2022-07-27T05:17:48.162Z,81.20
2022-07-27T05:20:15.682Z,81.42
2022-07-27T05:22:42.861Z,81.28
2022-07-27T05:25:10.508Z,80.85
2022-07-27T05:27:37.682Z,80.84
2022-07-27T05:30:23.398Z,79.59
2022-07-27T05:32:50.114Z,79.28
2022-07-27T05:35:17.316Z,78.39
2022-07-27T05:37:44.164Z,77.88
2022-07-27T05:40:11.569Z,77.07
2022-07-27T05:42:38.544Z,75.24
2022-07-27T05:45:05.819Z,74.50
2022-07-27T05:47:32.537Z,74.93
2022-07-27T05:49:59.626Z,75.17
2022-07-27T05:52:26.384Z,74.61
2022-07-27T05:54:53.343Z,73.50
2022-07-27T05:57:20.078Z,74.93
2022-07-27T05:59:46.828Z,74.53
2022-07-27T06:02:13.827Z,75.02
2022-07-27T06:04:40.538Z,75.51
2022-07-27T06:07:25.381Z,76.81
2022-07-27T06:09:52.216Z,76.87
2022-07-27T06:12:18.887Z,76.90
2022-07-27T06:14:45.762Z,77.42
2022-07-27T06:17:18.204Z,76.86
2022-07-27T06:19:45.508Z,76.73
2022-07-27T06:22:12.455Z,76.64
2022-07-27T06:24:39.185Z,76.58
2022-07-27T06:27:06.087Z,76.46
2022-07-27T06:29:34.833Z,75.66
2022-07-27T06:32:01.682Z,75.32
2022-07-27T06:34:29.005Z,75.08
2022-07-27T06:36:58.187Z,75.34
2022-07-27T06:39:25.044Z,75.24
2022-07-27T06:41:56.196Z,75.18
2022-07-27T06:44:24.700Z,75.06
2022-07-27T06:46:51.394Z,73.75
2022-07-27T06:49:18.601Z,73.84
2022-07-27T06:51:45.398Z,73.88
2022-07-27T06:54:12.193Z,73.87
2022-07-27T06:56:38.910Z,73.74
2022-07-27T06:59:05.611Z,73.81
2022-07-27T07:01:32.440Z,72.75
2022-07-27T07:03:59.997Z,72.74
2022-07-27T07:06:26.941Z,72.25
2022-07-27T07:08:53.773Z,72.08
2022-07-27T07:11:20.517Z,70.47
2022-07-27T07:13:47.232Z,70.80
2022-07-27T07:16:14.501Z,71.32
2022-07-27T07:18:41.349Z,71.35
2022-07-27T07:21:08.045Z,71.51
2022-07-27T07:23:34.854Z,71.21
2022-07-27T07:26:01.566Z,71.62
2022-07-27T07:28:28.309Z,71.57
2022-07-27T07:30:55.112Z,71.00
2022-07-27T07:33:21.919Z,71.55
2022-07-27T07:36:13.580Z,70.65
2022-07-27T07:38:35.390Z,70.85
2022-07-27T07:41:04.442Z,70.66
2022-07-27T07:43:31.222Z,70.43
2022-07-27T07:45:58.015Z,70.33
2022-07-27T07:48:24.888Z,70.05
2022-07-27T07:50:53.355Z,68.33
2022-07-27T07:53:24.478Z,68.96
2022-07-27T07:55:56.746Z,68.75
2022-07-27T07:58:23.677Z,67.15
2022-07-27T08:00:50.419Z,67.70
2022-07-27T08:03:17.881Z,66.52
2022-07-27T08:05:45.057Z,66.59
2022-07-27T08:08:11.719Z,66.21
2022-07-27T08:10:38.450Z,66.54
2022-07-27T08:13:05.342Z,65.74
2022-07-27T08:15:35.859Z,65.74
2022-07-27T08:18:06.705Z,66.12
2022-07-27T08:20:33.720Z,65.35
2022-07-27T08:23:01.618Z,65.30
2022-07-27T08:25:28.486Z,64.57
2022-07-27T08:27:56.269Z,64.07
2022-07-27T08:30:23.882Z,63.80
2022-07-27T08:33:01.270Z,64.60
2022-07-27T08:35:29.538Z,63.46
2022-07-27T08:37:56.649Z,63.19
2022-07-27T08:43:11.955Z,64.40
2022-07-27T08:45:41.660Z,64.67
2022-07-27T08:48:12.644Z,63.42
2022-07-27T08:50:42.369Z,63.09
2022-07-27T08:53:12.061Z,62.40
2022-07-27T08:55:44.059Z,62.65
2022-07-27T08:58:12.498Z,62.61
2022-07-27T09:00:42.460Z,62.28
2022-07-27T09:03:18.464Z,63.17
2022-07-27T09:05:53.758Z,61.05
2022-07-27T09:08:30.759Z,61.34
2022-07-27T09:10:59.688Z,61.70
2022-07-27T09:13:32.451Z,60.32
2022-07-27T09:16:23.008Z,59.08
2022-07-27T09:18:59.197Z,57.45
2022-07-27T09:21:26.068Z,57.65
2022-07-27T09:23:55.661Z,60.03
2022-07-27T09:26:33.638Z,58.56
2022-07-27T09:29:12.325Z,57.80
2022-07-27T09:31:51.374Z,53.90
2022-07-27T09:34:34.475Z,53.10
2022-07-27T09:37:05.841Z,54.39
2022-07-27T09:39:32.964Z,54.42
2022-07-27T09:42:02.485Z,52.38
2022-07-27T09:44:43.566Z,53.14
2022-07-27T09:47:29.152Z,50.02
2022-07-27T09:50:17.653Z,46.71
2022-07-27T09:52:45.340Z,44.56
2022-07-27T09:55:12.126Z,43.61
2022-07-27T09:57:53.006Z,42.85
2022-07-27T10:00:20.091Z,43.34
2022-07-27T10:02:47.960Z,43.14
2022-07-27T10:05:18.215Z,43.17
2022-07-27T10:07:45.337Z,43.70
2022-07-27T10:10:14.424Z,43.56
2022-07-27T10:12:46.805Z,43.91
2022-07-27T10:15:15.133Z,41.77
2022-07-27T10:17:44.963Z,42.45
2022-07-27T10:20:13.865Z,41.14
2022-07-27T10:23:01.579Z,43.99
2022-07-27T10:25:37.703Z,43.08
2022-07-27T10:28:17.518Z,45.14
2022-07-27T10:30:46.234Z,45.27
2022-07-27T10:33:36.061Z,45.48
2022-07-27T10:36:04.294Z,46.50
2022-07-27T10:38:57.888Z,46.89
2022-07-27T10:41:27.291Z,47.00
2022-07-27T10:44:13.198Z,46.21
2022-07-27T10:46:50.181Z,44.75
2022-07-27T10:49:26.217Z,44.46
2022-07-27T10:51:54.344Z,42.61
2022-07-27T10:54:29.402Z,43.49
2022-07-27T10:56:59.674Z,43.96
2022-07-27T11:00:06.384Z,42.31
2022-07-27T11:02:42.733Z,42.07
2022-07-27T11:05:37.846Z,38.43
2022-07-27T11:08:36.093Z,40.52
2022-07-27T11:10:48.505Z,39.70
2022-07-27T11:13:20.678Z,40.12
2022-07-27T11:16:20.989Z,38.51
2022-07-27T11:19:03.832Z,39.14
2022-07-27T11:21:36.366Z,38.80
2022-07-27T11:24:06.018Z,39.55
2022-07-27T11:26:44.648Z,38.64
2022-07-27T11:29:13.597Z,38.63
2022-07-27T11:31:55.488Z,39.81
2022-07-27T11:34:35.270Z,39.37
2022-07-27T11:37:05.783Z,39.50
2022-07-27T11:40:00.019Z,39.95
2022-07-27T11:42:23.883Z,40.35
2022-07-27T11:44:53.089Z,40.52
2022-07-27T11:47:21.584Z,40.88
2022-07-27T11:49:48.519Z,41.54
2022-07-27T11:52:18.520Z,40.77
2022-07-27T11:54:51.397Z,41.05
2022-07-27T11:57:21.767Z,41.21
2022-07-27T11:59:48.666Z,40.54
2022-07-27T12:02:18.385Z,39.88
2022-07-27T12:04:47.424Z,40.04
2022-07-27T12:07:17.895Z,40.84
2022-07-27T12:09:47.902Z,40.25
2022-07-27T12:12:20.086Z,40.43
2022-07-27T12:14:58.190Z,40.18
2022-07-27T12:17:30.503Z,39.87
2022-07-27T12:20:07.041Z,40.96
2022-07-27T12:22:36.864Z,40.36
2022-07-27T12:25:15.912Z,40.75
2022-07-27T12:28:01.637Z,40.65
2022-07-27T12:30:33.892Z,39.84
2022-07-27T12:33:01.978Z,39.15
2022-07-27T12:35:36.741Z,41.00
2022-07-27T12:38:07.871Z,40.74
2022-07-27T12:40:42.579Z,41.16
2022-07-27T12:43:09.998Z,40.01
2022-07-27T12:45:38.678Z,41.22
2022-07-27T12:48:15.731Z,41.69
2022-07-27T12:50:44.554Z,43.20
2022-07-27T12:53:13.459Z,42.96
2022-07-27T12:55:42.100Z,42.43
2022-07-27T12:58:14.237Z,43.02
2022-07-27T13:00:41.728Z,44.34
2022-07-27T13:03:09.201Z,44.21
2022-07-27T13:05:36.671Z,44.22
2022-07-27T13:08:04.867Z,44.72
2022-07-27T13:10:32.246Z,46.00
2022-07-27T13:12:59.230Z,44.96
2022-07-27T13:15:26.487Z,44.40
2022-07-27T13:17:53.326Z,42.66
2022-07-27T13:20:20.142Z,43.02
2022-07-27T13:22:47.385Z,43.58
2022-07-27T13:25:17.287Z,43.80
2022-07-27T13:27:48.876Z,43.31
2022-07-27T13:30:17.930Z,44.15
2022-07-27T13:32:46.933Z,43.43
2022-07-27T13:35:14.067Z,43.33
2022-07-27T13:37:41.358Z,41.81
2022-07-27T13:40:09.175Z,41.02
2022-07-27T13:42:36.065Z,41.65
2022-07-27T13:45:09.713Z,41.81
2022-07-27T13:47:38.579Z,39.36
2022-07-27T13:50:06.168Z,40.77
2022-07-27T13:52:33.112Z,42.78
2022-07-27T13:54:59.845Z,41.26
2022-07-27T13:57:26.680Z,41.22
2022-07-27T13:59:53.986Z,41.42
2022-07-27T14:02:23.177Z,42.33
2022-07-27T14:04:53.300Z,43.06
2022-07-27T14:07:24.837Z,43.16
2022-07-27T14:10:13.354Z,43.14
2022-07-27T14:12:40.081Z,44.29
2022-07-27T14:15:07.546Z,42.89
2022-07-27T14:17:34.411Z,43.90
2022-07-27T14:20:01.301Z,44.02
2022-07-27T14:22:28.053Z,44.96
2022-07-27T14:24:54.946Z,46.03
2022-07-27T14:27:21.844Z,44.83
2022-07-27T14:29:48.570Z,45.63
2022-07-27T14:32:15.309Z,44.80
2022-07-27T14:34:44.294Z,45.37
2022-07-27T14:37:11.175Z,45.52
2022-07-27T14:39:39.311Z,43.76
2022-07-27T14:42:06.405Z,44.47
2022-07-27T14:44:35.093Z,45.74
2022-07-27T14:47:02.115Z,45.84
2022-07-27T14:49:29.355Z,47.30
2022-07-27T14:51:56.798Z,48.35
2022-07-27T14:54:23.903Z,52.59
2022-07-27T14:56:50.744Z,54.04
2022-07-27T14:59:17.589Z,56.93
2022-07-27T15:01:44.408Z,59.34
2022-07-27T15:04:11.330Z,56.48
2022-07-27T15:06:39.221Z,55.64
2022-07-27T15:09:07.964Z,59.26
2022-07-27T15:11:36.399Z,59.48
2022-07-27T15:14:05.182Z,62.96
2022-07-27T15:16:32.417Z,63.35
2022-07-27T15:19:00.415Z,61.40
2022-07-27T15:21:27.327Z,60.92
2022-07-27T15:23:54.227Z,55.26
2022-07-27T15:26:20.919Z,48.35
2022-07-27T15:28:47.748Z,44.98
2022-07-27T15:31:14.636Z,42.76
2022-07-27T15:33:41.689Z,42.80
2022-07-27T15:36:08.602Z,43.79
2022-07-27T15:38:35.508Z,42.28
2022-07-27T15:41:02.329Z,45.49
2022-07-27T15:43:29.175Z,46.35
2022-07-27T15:45:55.930Z,44.86
2022-07-27T15:48:23.393Z,40.68
2022-07-27T15:50:52.574Z,41.49
2022-07-27T15:53:21.343Z,43.46
2022-07-27T15:55:48.773Z,43.17
2022-07-27T15:58:19.345Z,45.71
2022-07-27T16:00:48.738Z,47.42
2022-07-27T16:03:16.131Z,46.10
2022-07-27T16:05:44.618Z,46.49
2022-07-27T16:08:11.780Z,48.33
2022-07-27T16:10:40.605Z,49.43
2022-07-27T16:13:08.941Z,50.67
2022-07-27T16:15:55.486Z,50.01
2022-07-27T16:18:22.464Z,48.40
2022-07-27T16:20:49.208Z,46.72
2022-07-27T16:23:18.890Z,47.24
2022-07-27T16:26:07.940Z,46.84
2022-07-27T16:28:39.614Z,47.92
2022-07-27T16:31:08.105Z,46.42
2022-07-27T16:33:35.047Z,47.21
2022-07-27T16:36:02.006Z,45.68
2022-07-27T16:38:29.143Z,45.99
2022-07-27T16:40:56.516Z,46.23
2022-07-27T16:43:34.774Z,48.00
2022-07-27T16:46:10.168Z,47.75
2022-07-27T16:48:42.636Z,47.18
2022-07-27T16:51:14.673Z,46.33
2022-07-27T16:53:43.607Z,45.72
2022-07-27T16:56:10.753Z,43.91
2022-07-27T16:58:37.916Z,43.83
2022-07-27T17:01:05.232Z,45.24
2022-07-27T17:03:32.239Z,44.29
2022-07-27T17:06:02.245Z,45.29
2022-07-27T17:08:32.346Z,44.95
2022-07-27T17:11:00.563Z,45.04
2022-07-27T17:13:33.742Z,45.53
2022-07-27T17:16:03.460Z,47.61
2022-07-27T17:18:34.241Z,50.16
2022-07-27T17:21:05.101Z,50.47
2022-07-27T17:23:37.772Z,50.98
2022-07-27T17:26:06.723Z,51.71
2022-07-27T17:28:36.772Z,51.85
2022-07-27T17:31:05.492Z,52.29
2022-07-27T17:33:32.310Z,54.54
2022-07-27T17:35:59.736Z,54.64
2022-07-27T17:38:27.065Z,55.65
2022-07-27T17:40:54.081Z,55.40
2022-07-27T17:43:20.896Z,56.67
2022-07-27T17:45:47.602Z,57.13
2022-07-27T17:48:14.529Z,56.98
2022-07-27T17:50:41.450Z,57.47
2022-07-27T17:53:08.182Z,58.87
2022-07-27T17:55:37.766Z,58.63
2022-07-27T17:58:04.566Z,59.12
2022-07-27T18:00:31.427Z,58.86
2022-07-27T18:02:58.245Z,58.62
2022-07-27T18:05:25.069Z,59.09
2022-07-27T18:07:53.219Z,58.53
2022-07-27T18:10:20.803Z,59.25
2022-07-27T18:12:47.633Z,58.00
2022-07-27T18:15:32.893Z,58.84
2022-07-27T18:17:59.878Z,59.22
2022-07-27T18:20:26.607Z,58.95
2022-07-27T18:22:53.427Z,58.13
2022-07-27T18:25:22.038Z,58.89
2022-07-27T18:27:50.064Z,59.13
2022-07-27T18:30:17.788Z,58.90
2022-07-27T18:32:45.638Z,57.36
2022-07-27T18:35:12.706Z,57.93
2022-07-27T18:37:39.591Z,55.69
2022-07-27T18:40:07.159Z,56.01
2022-07-27T18:42:34.019Z,55.24
2022-07-27T18:45:00.738Z,54.96
2022-07-27T18:47:27.623Z,54.18
2022-07-27T18:49:54.296Z,54.79
2022-07-27T18:52:21.053Z,54.67
2022-07-27T18:54:47.780Z,54.24
2022-07-27T18:57:14.477Z,54.98
2022-07-27T18:59:41.523Z,54.11
2022-07-27T19:02:08.633Z,53.39
2022-07-27T19:04:35.665Z,53.09
2022-07-27T19:07:03.689Z,51.99
2022-07-27T19:09:33.909Z,52.87
2022-07-27T19:12:05.956Z,52.54
2022-07-27T19:14:36.148Z,51.89
2022-07-27T19:17:03.431Z,50.83
2022-07-27T19:19:30.681Z,51.21
2022-07-27T19:21:57.636Z,49.80
2022-07-27T19:24:24.310Z,49.13
2022-07-27T19:26:51.114Z,49.37
2022-07-27T19:29:19.802Z,49.47
2022-07-27T19:31:46.676Z,49.11
2022-07-27T19:34:13.396Z,48.70
2022-07-27T19:36:40.164Z,48.93
2022-07-27T19:39:08.204Z,49.61
2022-07-27T19:41:35.757Z,50.87
2022-07-27T19:44:03.140Z,50.40
2022-07-27T19:46:30.192Z,51.76
2022-07-27T19:48:57.339Z,51.15
2022-07-27T19:51:24.285Z,50.05
2022-07-27T19:53:50.970Z,50.76
2022-07-27T19:56:18.005Z,51.24
2022-07-27T19:58:44.759Z,50.83
2022-07-27T20:01:12.510Z,51.41
2022-07-27T20:03:52.610Z,51.29
2022-07-27T20:06:23.041Z,51.88
2022-07-27T20:08:49.792Z,50.79
2022-07-27T20:11:16.556Z,51.40
2022-07-27T20:13:43.466Z,51.83
2022-07-27T20:16:10.377Z,51.34
2022-07-27T20:18:37.781Z,52.33
2022-07-27T20:21:04.735Z,50.46
2022-07-27T20:23:50.441Z,50.18
2022-07-27T20:26:17.299Z,49.71
2022-07-27T20:28:44.365Z,49.92
2022-07-27T20:31:11.140Z,49.54
2022-07-27T20:33:37.875Z,48.49
2022-07-27T20:36:05.055Z,47.42
2022-07-27T20:38:31.933Z,48.59
2022-07-27T20:40:59.446Z,48.91
2022-07-27T20:43:29.201Z,48.66
2022-07-27T20:45:56.674Z,48.69
2022-07-27T20:48:23.401Z,50.51
2022-07-27T20:50:51.438Z,50.28
2022-07-27T20:53:20.336Z,51.13
2022-07-27T20:55:47.729Z,51.19
2022-07-27T20:58:14.517Z,50.40
2022-07-27T21:00:41.351Z,50.53
2022-07-27T21:03:08.622Z,49.69
2022-07-27T21:05:35.594Z,49.77
2022-07-27T21:08:02.317Z,49.40
2022-07-27T21:10:29.333Z,49.29
2022-07-27T21:12:56.481Z,49.63
2022-07-27T21:15:23.227Z,49.39
2022-07-27T21:18:00.646Z,47.83
2022-07-27T21:20:27.634Z,48.68
2022-07-27T21:23:13.134Z,48.01
2022-07-27T21:25:40.657Z,49.25
2022-07-27T21:28:07.387Z,47.39
2022-07-27T21:30:36.419Z,47.81
2022-07-27T21:33:03.274Z,48.17
2022-07-27T21:35:30.080Z,49.23
2022-07-27T21:37:56.823Z,49.78
2022-07-27T21:40:23.539Z,50.07
2022-07-27T21:42:50.399Z,50.37
2022-07-27T21:45:17.093Z,50.96
2022-07-27T21:47:43.757Z,51.05
2022-07-27T21:50:11.091Z,50.53
2022-07-27T21:52:37.741Z,50.81
2022-07-27T21:55:05.690Z,50.16
2022-07-27T21:57:32.458Z,50.36
2022-07-27T21:59:59.137Z,50.15
2022-07-27T22:02:28.175Z,50.24
2022-07-27T22:04:55.378Z,51.49
2022-07-27T22:07:26.405Z,51.58
2022-07-27T22:09:59.216Z,52.18
2022-07-27T22:12:26.132Z,53.12
2022-07-27T22:14:53.163Z,53.38
2022-07-27T22:17:19.905Z,53.50
2022-07-27T22:19:46.784Z,53.76
2022-07-27T22:22:13.687Z,54.86
2022-07-27T22:24:41.008Z,55.69
2022-07-27T22:27:07.727Z,56.02
2022-07-27T22:29:36.461Z,56.55
2022-07-27T22:32:03.338Z,56.14
2022-07-27T22:34:30.405Z,55.96
2022-07-27T22:36:57.123Z,56.26
2022-07-27T22:39:23.913Z,55.84
2022-07-27T22:41:50.587Z,56.01
2022-07-27T22:44:20.367Z,57.05
2022-07-27T22:46:47.477Z,57.24
2022-07-27T22:49:14.693Z,56.90
2022-07-27T22:51:50.126Z,56.49
2022-07-27T22:54:20.723Z,57.72
2022-07-27T22:56:47.568Z,57.64
2022-07-27T22:59:14.514Z,57.05
2022-07-27T23:01:46.191Z,57.16
2022-07-27T23:04:15.535Z,56.92
2022-07-27T23:06:42.679Z,57.35
2022-07-27T23:09:09.460Z,58.05
2022-07-27T23:11:36.204Z,57.92
2022-07-27T23:14:03.252Z,57.84
2022-07-27T23:16:30.061Z,58.43
2022-07-27T23:18:56.897Z,59.36
2022-07-27T23:21:23.564Z,59.29
2022-07-27T23:23:53.451Z,59.45
2022-07-27T23:26:23.036Z,60.37
2022-07-27T23:28:53.432Z,60.08
2022-07-27T23:31:20.197Z,59.76
2022-07-27T23:33:47.145Z,60.75
2022-07-27T23:36:14.261Z,60.62
2022-07-27T23:38:41.353Z,60.35
2022-07-27T23:41:08.368Z,60.73
2022-07-27T23:43:35.160Z,60.95
2022-07-27T23:46:02.846Z,60.65
2022-07-27T23:48:29.925Z,60.59
2022-07-27T23:50:56.753Z,60.92
2022-07-27T23:53:24.057Z,61.56
2022-07-27T23:55:50.813Z,61.32
2022-07-27T23:58:17.605Z,61.74
